createdAt,value
2019-03-17T00:00:17.098Z,47.81
2019-03-17T00:02:45.784Z,47.53
2019-03-17T00:05:14.494Z,47.96
2019-03-17T00:07:43.069Z,48.08
2019-03-17T00:10:11.971Z,47.55
2019-03-17T00:12:40.472Z,47.49
2019-03-17T00:15:09.225Z,48.31
2019-03-17T00:17:37.917Z,48.02
2019-03-17T00:20:07.633Z,47.84
2019-03-17T00:22:36.355Z,48.83
2019-03-17T00:25:09.479Z,48.75
2019-03-17T00:27:36.397Z,49.57
2019-03-17T00:30:11.919Z,49.28
2019-03-17T00:32:40.457Z,49.48
2019-03-17T00:35:09.089Z,49.10
2019-03-17T00:37:37.726Z,49.52
2019-03-17T00:40:10.736Z,48.37
2019-03-17T00:42:39.508Z,47.50
2019-03-17T00:45:12.135Z,47.81
2019-03-17T00:47:40.751Z,48.46
2019-03-17T00:50:11.200Z,48.73
2019-03-17T00:52:39.838Z,48.11
2019-03-17T00:55:08.688Z,48.52
2019-03-17T00:57:37.329Z,48.97
2019-03-17T01:00:11.626Z,49.69
2019-03-17T01:02:40.315Z,51.27
2019-03-17T01:05:09.034Z,51.35
2019-03-17T01:07:37.672Z,52.29
2019-03-17T01:10:08.563Z,52.73
2019-03-17T01:12:37.131Z,52.79
2019-03-17T01:15:10.600Z,52.42
2019-03-17T01:17:39.303Z,52.07
2019-03-17T01:20:09.740Z,52.46
2019-03-17T01:22:38.317Z,52.11
2019-03-17T01:25:09.001Z,50.32
2019-03-17T01:27:37.647Z,49.84
2019-03-17T01:30:09.070Z,50.00
2019-03-17T01:32:38.209Z,51.78
2019-03-17T01:35:09.843Z,52.49
2019-03-17T01:37:38.386Z,53.07
2019-03-17T01:40:09.350Z,53.39
2019-03-17T01:42:37.996Z,52.83
2019-03-17T01:45:08.448Z,52.52
2019-03-17T01:47:37.263Z,51.10
2019-03-17T01:50:07.408Z,50.73
2019-03-17T01:52:36.057Z,49.58
2019-03-17T01:55:06.051Z,49.19
2019-03-17T01:57:34.699Z,50.17
2019-03-17T02:00:03.270Z,50.22
2019-03-17T02:02:31.951Z,51.13
2019-03-17T02:05:00.515Z,52.27
2019-03-17T02:07:29.094Z,52.39
2019-03-17T02:09:57.703Z,52.40
2019-03-17T02:12:26.267Z,52.55
2019-03-17T02:14:54.837Z,51.41
2019-03-17T02:17:23.522Z,51.42
2019-03-17T02:19:52.161Z,51.11
2019-03-17T02:22:22.262Z,51.57
2019-03-17T02:24:51.029Z,51.47
2019-03-17T02:27:19.676Z,51.46
2019-03-17T02:29:48.256Z,50.75
2019-03-17T02:32:16.873Z,51.80
2019-03-17T02:34:45.438Z,52.23
2019-03-17T02:37:14.067Z,51.71
2019-03-17T02:39:42.760Z,51.40
2019-03-17T02:42:11.324Z,51.87
2019-03-17T02:44:39.911Z,51.87
2019-03-17T02:47:08.511Z,51.75
2019-03-17T02:49:37.129Z,51.86
2019-03-17T02:52:05.804Z,52.29
2019-03-17T02:54:34.491Z,52.09
2019-03-17T02:57:03.128Z,52.01
2019-03-17T02:59:31.779Z,51.86
2019-03-17T03:02:00.488Z,51.99
2019-03-17T03:04:29.060Z,52.55
2019-03-17T03:06:57.567Z,52.00
2019-03-17T03:09:26.199Z,51.29
2019-03-17T03:11:54.836Z,51.82
2019-03-17T03:14:23.479Z,51.73
2019-03-17T03:16:52.099Z,50.67
2019-03-17T03:19:20.741Z,51.86
2019-03-17T03:21:49.385Z,53.03
2019-03-17T03:24:18.101Z,51.75
2019-03-17T03:26:46.646Z,53.19
2019-03-17T03:29:15.289Z,52.81
2019-03-17T03:31:43.846Z,52.31
2019-03-17T03:34:12.502Z,52.42
2019-03-17T03:36:41.141Z,52.64
2019-03-17T03:39:09.749Z,53.97
2019-03-17T03:41:38.415Z,54.47
2019-03-17T03:44:07.066Z,55.34
2019-03-17T03:46:35.741Z,55.17
2019-03-17T03:49:04.486Z,54.35
2019-03-17T03:51:33.072Z,54.31
2019-03-17T03:54:01.688Z,53.96
2019-03-17T03:56:30.334Z,53.81
2019-03-17T03:58:59.080Z,53.98
2019-03-17T04:01:27.686Z,54.32
2019-03-17T04:03:56.331Z,54.76
2019-03-17T04:06:26.678Z,54.77
2019-03-17T04:08:55.333Z,54.72
2019-03-17T04:11:23.956Z,53.95
2019-03-17T04:13:52.529Z,54.74
2019-03-17T04:16:21.149Z,54.73
2019-03-17T04:18:49.805Z,55.59
2019-03-17T04:21:18.477Z,55.98
2019-03-17T04:23:47.162Z,56.09
2019-03-17T04:26:15.813Z,57.10
2019-03-17T04:28:44.396Z,57.28
2019-03-17T04:31:14.726Z,56.83
2019-03-17T04:33:43.385Z,56.12
2019-03-17T04:36:11.891Z,56.19
2019-03-17T04:38:43.645Z,54.99
2019-03-17T04:41:11.210Z,55.11
2019-03-17T04:43:39.863Z,54.86
2019-03-17T04:46:08.549Z,54.87
2019-03-17T04:48:37.222Z,53.10
2019-03-17T04:51:05.842Z,53.49
2019-03-17T04:53:34.706Z,53.68
2019-03-17T04:56:03.345Z,54.83
2019-03-17T04:58:31.932Z,54.44
2019-03-17T05:01:00.606Z,54.96
2019-03-17T05:03:29.182Z,54.91
2019-03-17T05:05:57.852Z,55.70
2019-03-17T05:08:26.438Z,55.55
2019-03-17T05:10:55.822Z,55.72
2019-03-17T05:13:24.402Z,55.39
2019-03-17T05:15:53.134Z,55.44
2019-03-17T05:18:21.741Z,56.01
2019-03-17T05:20:50.387Z,55.70
2019-03-17T05:23:18.971Z,55.44
2019-03-17T05:25:47.599Z,54.97
2019-03-17T05:28:15.996Z,54.99
2019-03-17T05:30:44.645Z,55.15
2019-03-17T05:33:14.801Z,55.35
2019-03-17T05:35:43.380Z,54.68
2019-03-17T05:38:12.026Z,53.37
2019-03-17T05:40:40.716Z,51.75
2019-03-17T05:43:09.301Z,51.26
2019-03-17T05:45:37.818Z,50.86
2019-03-17T05:48:06.499Z,50.22
2019-03-17T05:50:35.143Z,48.38
2019-03-17T05:53:03.779Z,49.16
2019-03-17T05:55:32.804Z,47.48
2019-03-17T05:58:01.448Z,46.89
2019-03-17T06:00:30.093Z,45.34
2019-03-17T06:02:58.716Z,45.97
2019-03-17T06:05:27.277Z,46.10
2019-03-17T06:07:55.917Z,46.22
2019-03-17T06:10:24.607Z,45.45
2019-03-17T06:12:53.267Z,45.95
2019-03-17T06:15:21.815Z,44.56
2019-03-17T06:17:50.663Z,43.76
2019-03-17T06:20:19.373Z,44.29
2019-03-17T06:22:48.034Z,43.38
2019-03-17T06:25:16.721Z,43.96
2019-03-17T06:27:45.372Z,46.36
2019-03-17T06:30:14.526Z,45.34
2019-03-17T06:32:43.160Z,42.85
2019-03-17T06:35:11.837Z,41.54
2019-03-17T06:37:40.490Z,42.39
2019-03-17T06:40:14.129Z,41.62
2019-03-17T06:42:42.792Z,42.10
2019-03-17T06:45:12.070Z,40.83
2019-03-17T06:47:40.783Z,40.30
2019-03-17T06:50:15.928Z,40.97
2019-03-17T06:52:44.581Z,41.57
2019-03-17T06:55:14.891Z,41.05
2019-03-17T06:57:43.475Z,41.11
2019-03-17T07:00:13.528Z,41.13
2019-03-17T07:02:42.537Z,39.83
2019-03-17T07:05:11.254Z,39.88
2019-03-17T07:07:44.453Z,40.96
2019-03-17T07:10:11.322Z,40.14
2019-03-17T07:12:39.993Z,40.52
2019-03-17T07:15:12.284Z,39.55
2019-03-17T07:17:41.524Z,40.19
2019-03-17T07:20:14.385Z,40.49
2019-03-17T07:22:43.036Z,39.78
2019-03-17T07:25:12.022Z,41.16
2019-03-17T07:27:40.695Z,40.19
2019-03-17T07:30:12.743Z,39.23
2019-03-17T07:32:42.898Z,39.43
2019-03-17T07:35:11.482Z,39.70
2019-03-17T07:37:40.129Z,39.17
2019-03-17T07:40:11.311Z,38.76
2019-03-17T07:42:39.967Z,38.83
2019-03-17T07:45:10.107Z,38.05
2019-03-17T07:47:38.846Z,37.97
2019-03-17T07:50:14.808Z,37.20
2019-03-17T07:52:43.497Z,37.72
2019-03-17T07:55:12.148Z,37.24
2019-03-17T07:57:40.800Z,37.37
2019-03-17T08:00:14.760Z,36.98
2019-03-17T08:02:43.341Z,37.14
2019-03-17T08:05:12.001Z,36.40
2019-03-17T08:07:40.690Z,36.86
2019-03-17T08:10:14.146Z,38.00
2019-03-17T08:12:42.855Z,37.92
2019-03-17T08:15:14.932Z,37.35
2019-03-17T08:17:43.674Z,36.62
2019-03-17T08:20:12.929Z,36.14
2019-03-17T08:22:41.573Z,36.68
2019-03-17T08:25:11.526Z,35.49
2019-03-17T08:27:40.102Z,34.37
2019-03-17T08:30:14.303Z,34.35
2019-03-17T08:32:43.093Z,33.96
2019-03-17T08:35:12.916Z,33.44
2019-03-17T08:37:41.603Z,33.81
2019-03-17T08:40:12.934Z,33.57
2019-03-17T08:42:41.662Z,33.58
2019-03-17T08:45:14.325Z,33.70
2019-03-17T08:47:42.912Z,33.40
2019-03-17T08:50:13.244Z,33.59
2019-03-17T08:52:43.434Z,32.97
2019-03-17T08:55:13.284Z,33.79
2019-03-17T08:57:41.923Z,35.81
2019-03-17T09:00:13.191Z,35.67
2019-03-17T09:02:41.768Z,32.90
2019-03-17T09:05:10.519Z,35.06
2019-03-17T09:07:39.218Z,33.84
2019-03-17T09:10:10.766Z,32.79
2019-03-17T09:12:39.405Z,33.46
2019-03-17T09:15:08.172Z,32.09
2019-03-17T09:17:36.800Z,32.09
2019-03-17T09:20:07.904Z,32.03
2019-03-17T09:22:36.507Z,31.75
2019-03-17T09:25:06.750Z,33.08
2019-03-17T09:27:35.401Z,31.88
2019-03-17T09:30:05.415Z,31.58
2019-03-17T09:32:34.033Z,30.82
2019-03-17T09:35:02.676Z,31.27
2019-03-17T09:37:31.366Z,28.89
2019-03-17T09:39:59.937Z,30.12
2019-03-17T09:42:28.510Z,29.57
2019-03-17T09:44:57.194Z,30.79
2019-03-17T09:47:25.770Z,28.82
2019-03-17T09:49:54.350Z,28.44
2019-03-17T09:52:22.959Z,28.37
2019-03-17T09:54:51.592Z,28.00
2019-03-17T09:57:20.160Z,28.68
2019-03-17T09:59:48.817Z,27.52
2019-03-17T10:02:17.467Z,27.75
2019-03-17T10:04:46.114Z,27.78
2019-03-17T10:07:14.753Z,27.91
2019-03-17T10:09:43.398Z,28.16
2019-03-17T10:12:11.972Z,28.01
2019-03-17T10:14:40.590Z,27.77
2019-03-17T10:17:09.236Z,26.56
2019-03-17T10:19:37.887Z,26.21
2019-03-17T10:22:06.493Z,25.25
2019-03-17T10:24:35.084Z,26.20
2019-03-17T10:27:03.645Z,26.76
2019-03-17T10:29:32.353Z,25.02
2019-03-17T10:32:00.929Z,25.01
2019-03-17T10:34:29.588Z,25.84
2019-03-17T10:36:58.604Z,25.32
2019-03-17T10:39:27.226Z,25.18
2019-03-17T10:41:55.809Z,24.71
2019-03-17T10:44:24.418Z,24.50
2019-03-17T10:46:53.059Z,24.65
2019-03-17T10:49:21.653Z,25.05
2019-03-17T10:51:50.578Z,25.49
2019-03-17T10:54:19.274Z,24.38
2019-03-17T10:56:48.016Z,25.54
2019-03-17T10:59:16.642Z,25.56
2019-03-17T11:01:45.202Z,25.54
2019-03-17T11:04:13.880Z,25.62
2019-03-17T11:06:42.555Z,25.52
2019-03-17T11:09:11.242Z,25.45
2019-03-17T11:11:39.829Z,25.17
2019-03-17T11:14:08.507Z,24.82
2019-03-17T11:16:37.090Z,25.38
2019-03-17T11:19:05.752Z,24.88
2019-03-17T11:21:34.406Z,25.36
2019-03-17T11:24:03.058Z,24.95
2019-03-17T11:26:31.774Z,24.71
2019-03-17T11:29:00.345Z,24.76
2019-03-17T11:31:28.984Z,25.15
2019-03-17T11:33:57.682Z,24.91
2019-03-17T11:36:26.284Z,24.82
2019-03-17T11:38:54.876Z,24.68
2019-03-17T11:41:23.561Z,23.94
2019-03-17T11:43:52.216Z,24.44
2019-03-17T11:46:20.863Z,24.04
2019-03-17T11:48:49.564Z,24.20
2019-03-17T11:51:18.216Z,24.10
2019-03-17T11:53:46.868Z,24.10
2019-03-17T11:56:15.661Z,23.35
2019-03-17T11:58:44.200Z,23.49
2019-03-17T12:01:12.849Z,23.39
2019-03-17T12:03:41.531Z,23.94
2019-03-17T12:06:10.211Z,23.77
2019-03-17T12:08:38.996Z,23.67
2019-03-17T12:11:07.724Z,23.51
2019-03-17T12:13:36.554Z,23.96
2019-03-17T12:16:05.207Z,23.37
2019-03-17T12:18:33.831Z,23.16
2019-03-17T12:21:02.586Z,22.91
2019-03-17T12:23:31.227Z,22.96
2019-03-17T12:25:59.902Z,22.72
2019-03-17T12:28:28.624Z,22.88
2019-03-17T12:30:57.203Z,23.11
2019-03-17T12:33:25.777Z,23.24
2019-03-17T12:35:54.811Z,23.38
2019-03-17T12:38:23.449Z,23.17
2019-03-17T12:40:52.044Z,22.89
2019-03-17T12:43:20.717Z,22.54
2019-03-17T12:45:49.321Z,22.71
2019-03-17T12:48:17.920Z,22.76
2019-03-17T12:50:46.604Z,22.75
2019-03-17T12:53:15.264Z,22.84
2019-03-17T12:55:43.922Z,23.26
2019-03-17T12:58:14.743Z,22.94
2019-03-17T13:00:42.993Z,21.90
2019-03-17T13:03:11.528Z,21.63
2019-03-17T13:05:40.226Z,21.79
2019-03-17T13:08:08.884Z,21.97
2019-03-17T13:10:37.491Z,21.88
2019-03-17T13:13:06.209Z,22.01
2019-03-17T13:15:34.840Z,22.11
2019-03-17T13:18:03.486Z,22.11
2019-03-17T13:20:32.236Z,21.67
2019-03-17T13:23:00.876Z,21.69
2019-03-17T13:25:29.548Z,21.70
2019-03-17T13:27:58.276Z,21.84
2019-03-17T13:30:26.863Z,21.87
2019-03-17T13:32:55.514Z,21.24
2019-03-17T13:35:24.217Z,21.06
2019-03-17T13:37:52.943Z,20.99
2019-03-17T13:40:29.469Z,20.91
2019-03-17T13:42:52.401Z,20.94
2019-03-17T13:45:21.012Z,21.17
2019-03-17T13:47:49.652Z,20.75
2019-03-17T13:50:20.284Z,20.77
2019-03-17T13:52:49.001Z,20.85
2019-03-17T13:55:17.847Z,20.86
2019-03-17T13:58:04.205Z,20.84
2019-03-17T14:00:32.841Z,20.47
2019-03-17T14:03:01.486Z,20.08
2019-03-17T14:05:30.631Z,20.58
2019-03-17T14:07:59.273Z,20.09
2019-03-17T14:10:40.045Z,20.12
2019-03-17T14:12:58.463Z,20.02
2019-03-17T14:15:28.061Z,20.99
2019-03-17T14:17:56.713Z,20.48
2019-03-17T14:20:25.420Z,20.49
2019-03-17T14:22:54.055Z,20.63
2019-03-17T14:25:28.206Z,20.73
2019-03-17T14:27:56.890Z,20.48
2019-03-17T14:30:25.563Z,20.94
2019-03-17T14:32:54.287Z,20.21
2019-03-17T14:35:23.072Z,20.45
2019-03-17T14:37:52.745Z,20.72
2019-03-17T14:40:21.478Z,20.80
2019-03-17T14:42:51.185Z,20.38
2019-03-17T14:45:19.900Z,20.50
2019-03-17T14:47:48.657Z,20.53
2019-03-17T14:50:21.544Z,20.52
2019-03-17T14:52:50.210Z,20.56
2019-03-17T14:55:19.060Z,20.42
2019-03-17T14:57:47.809Z,20.77
2019-03-17T15:00:21.615Z,20.93
2019-03-17T15:02:50.371Z,20.91
2019-03-17T15:05:19.133Z,20.63
2019-03-17T15:07:49.241Z,20.73
2019-03-17T15:10:21.994Z,20.82
2019-03-17T15:12:50.723Z,20.69
2019-03-17T15:15:23.128Z,20.82
2019-03-17T15:17:51.879Z,20.60
2019-03-17T15:20:25.611Z,20.64
2019-03-17T15:22:54.248Z,20.52
2019-03-17T15:25:24.221Z,20.73
2019-03-17T15:27:52.902Z,20.73
2019-03-17T15:30:29.375Z,21.07
2019-03-17T15:32:58.190Z,20.64
2019-03-17T15:35:27.052Z,20.62
2019-03-17T15:37:55.837Z,20.39
2019-03-17T15:40:24.534Z,20.37
2019-03-17T15:42:53.193Z,20.58
2019-03-17T15:45:23.091Z,20.83
2019-03-17T15:47:51.944Z,20.87
2019-03-17T15:50:27.941Z,20.92
2019-03-17T15:52:56.628Z,21.18
2019-03-17T15:55:25.262Z,21.01
2019-03-17T15:57:55.519Z,20.97
2019-03-17T16:00:27.355Z,21.04
2019-03-17T16:02:55.991Z,21.24
2019-03-17T16:05:24.640Z,21.44
2019-03-17T16:07:53.448Z,21.38
2019-03-17T16:10:29.575Z,21.55
2019-03-17T16:12:58.255Z,21.77
2019-03-17T16:15:26.893Z,21.77
2019-03-17T16:17:55.717Z,21.79
2019-03-17T16:20:26.483Z,21.96
2019-03-17T16:22:55.131Z,22.13
2019-03-17T16:25:25.830Z,22.36
2019-03-17T16:27:54.962Z,23.20
2019-03-17T16:30:28.331Z,24.16
2019-03-17T16:32:56.974Z,24.79
2019-03-17T16:35:27.068Z,25.39
2019-03-17T16:37:55.729Z,25.91
2019-03-17T16:40:31.585Z,26.23
2019-03-17T16:43:01.271Z,26.33
2019-03-17T16:45:29.915Z,26.54
2019-03-17T16:47:58.988Z,26.88
2019-03-17T16:50:30.831Z,26.88
2019-03-17T16:52:59.726Z,26.88
2019-03-17T16:55:36.657Z,27.06
2019-03-17T16:58:08.945Z,27.14
2019-03-17T17:00:39.640Z,27.17
2019-03-17T17:03:08.291Z,27.35
2019-03-17T17:05:37.009Z,27.67
2019-03-17T17:08:05.660Z,27.83
2019-03-17T17:10:34.322Z,27.75
2019-03-17T17:13:03.209Z,27.94
2019-03-17T17:15:33.215Z,28.02
2019-03-17T17:18:01.865Z,28.21
2019-03-17T17:20:32.603Z,28.38
2019-03-17T17:23:06.719Z,28.58
2019-03-17T17:25:35.356Z,28.54
2019-03-17T17:28:04.654Z,28.66
2019-03-17T17:30:33.309Z,29.11
2019-03-17T17:33:02.019Z,30.49
2019-03-17T17:35:30.718Z,29.35
2019-03-17T17:37:59.370Z,29.54
2019-03-17T17:40:28.627Z,29.43
2019-03-17T17:42:58.527Z,29.24
2019-03-17T17:45:27.271Z,29.14
2019-03-17T17:47:55.915Z,28.88
2019-03-17T17:50:30.215Z,29.02
2019-03-17T17:52:59.707Z,28.64
2019-03-17T17:55:28.362Z,28.72
2019-03-17T17:57:59.457Z,29.05
2019-03-17T18:00:45.084Z,29.54
2019-03-17T18:03:13.675Z,29.54
2019-03-17T18:05:42.326Z,29.23
2019-03-17T18:08:11.007Z,29.24
2019-03-17T18:10:40.762Z,29.55
2019-03-17T18:13:09.398Z,29.52
2019-03-17T18:15:38.085Z,29.37
2019-03-17T18:18:06.725Z,29.61
2019-03-17T18:20:35.305Z,29.75
2019-03-17T18:23:04.028Z,29.56
2019-03-17T18:25:32.670Z,29.70
2019-03-17T18:28:03.003Z,29.66
2019-03-17T18:30:31.689Z,29.79
2019-03-17T18:33:00.368Z,30.01
2019-03-17T18:35:29.012Z,30.02
2019-03-17T18:37:57.668Z,30.49
2019-03-17T18:40:26.473Z,30.61
2019-03-17T18:42:55.116Z,30.76
2019-03-17T18:45:32.107Z,30.51
2019-03-17T18:48:00.762Z,30.23
2019-03-17T18:50:29.417Z,30.08
2019-03-17T18:52:58.161Z,30.01
2019-03-17T18:55:26.800Z,30.15
2019-03-17T18:57:55.490Z,30.23
2019-03-17T19:00:25.331Z,30.37
2019-03-17T19:02:53.984Z,30.29
2019-03-17T19:05:22.685Z,30.43
2019-03-17T19:07:51.316Z,30.69
2019-03-17T19:10:21.441Z,30.72
2019-03-17T19:12:50.110Z,30.68
2019-03-17T19:15:23.348Z,30.57
2019-03-17T19:17:55.323Z,30.43
2019-03-17T19:20:26.014Z,30.38
2019-03-17T19:22:54.637Z,30.38
2019-03-17T19:25:26.885Z,30.58
2019-03-17T19:27:55.548Z,30.68
2019-03-17T19:30:24.348Z,30.70
2019-03-17T19:32:52.935Z,30.69
2019-03-17T19:35:21.585Z,30.69
2019-03-17T19:37:50.266Z,30.71
2019-03-17T19:40:23.253Z,30.70
2019-03-17T19:42:59.343Z,31.04
2019-03-17T19:45:22.341Z,31.45
2019-03-17T19:47:50.983Z,31.60
2019-03-17T19:50:21.283Z,31.66
2019-03-17T19:52:50.092Z,31.85
2019-03-17T19:55:18.838Z,31.70
2019-03-17T19:57:47.493Z,31.58
2019-03-17T20:00:17.289Z,31.59
2019-03-17T20:02:47.730Z,31.77
2019-03-17T20:05:16.645Z,31.79
2019-03-17T20:07:45.275Z,31.87
2019-03-17T20:10:22.666Z,32.10
2019-03-17T20:12:51.411Z,31.99
2019-03-17T20:15:20.066Z,32.38
2019-03-17T20:17:48.640Z,32.64
2019-03-17T20:20:17.417Z,32.60
2019-03-17T20:22:46.141Z,32.95
2019-03-17T20:25:14.812Z,33.15
2019-03-17T20:27:43.719Z,33.55
2019-03-17T20:30:16.445Z,33.69
2019-03-17T20:32:45.134Z,33.97
2019-03-17T20:35:14.240Z,33.73
2019-03-17T20:37:42.889Z,33.58
2019-03-17T20:40:16.178Z,32.99
2019-03-17T20:42:46.309Z,33.21
2019-03-17T20:45:15.972Z,33.48
2019-03-17T20:47:44.696Z,33.66
2019-03-17T20:50:15.542Z,33.50
2019-03-17T20:52:44.194Z,34.15
2019-03-17T20:55:12.952Z,34.45
2019-03-17T20:57:42.090Z,34.34
2019-03-17T21:00:18.596Z,34.24
2019-03-17T21:02:47.184Z,35.23
2019-03-17T21:05:15.846Z,35.41
2019-03-17T21:07:44.482Z,35.69
2019-03-17T21:10:17.321Z,35.92
2019-03-17T21:12:45.980Z,36.14
2019-03-17T21:15:16.018Z,36.25
2019-03-17T21:17:44.703Z,36.38
2019-03-17T21:20:15.794Z,36.30
2019-03-17T21:22:44.447Z,36.74
2019-03-17T21:25:13.198Z,36.84
2019-03-17T21:27:41.715Z,37.03
2019-03-17T21:30:14.708Z,36.94
2019-03-17T21:32:43.348Z,35.37
2019-03-17T21:35:11.925Z,35.24
2019-03-17T21:37:40.617Z,35.29
2019-03-17T21:40:11.361Z,35.28
2019-03-17T21:42:40.011Z,35.13
2019-03-17T21:45:10.798Z,36.34
2019-03-17T21:47:39.370Z,36.42
2019-03-17T21:50:10.924Z,37.00
2019-03-17T21:52:39.610Z,37.02
2019-03-17T21:55:09.962Z,37.40
2019-03-17T21:57:38.538Z,37.13
2019-03-17T22:00:10.130Z,37.13
2019-03-17T22:02:38.770Z,37.84
2019-03-17T22:05:07.427Z,37.48
2019-03-17T22:07:48.214Z,37.53
2019-03-17T22:10:09.432Z,37.89
2019-03-17T22:12:38.076Z,37.94
2019-03-17T22:15:09.786Z,38.47
2019-03-17T22:17:38.421Z,38.05
2019-03-17T22:20:09.655Z,37.86
2019-03-17T22:22:38.331Z,37.66
2019-03-17T22:25:09.169Z,37.89
2019-03-17T22:27:37.817Z,38.29
2019-03-17T22:30:22.085Z,38.52
2019-03-17T22:32:50.773Z,38.62
2019-03-17T22:35:19.506Z,38.57
2019-03-17T22:37:48.104Z,38.54
2019-03-17T22:40:17.576Z,38.58
2019-03-17T22:42:46.217Z,38.44
2019-03-17T22:45:16.002Z,38.37
2019-03-17T22:47:44.700Z,38.74
2019-03-17T22:50:16.248Z,38.78
2019-03-17T22:52:44.933Z,38.26
2019-03-17T22:55:14.683Z,38.16
2019-03-17T22:57:43.421Z,38.31
2019-03-17T23:00:36.476Z,38.67
2019-03-17T23:03:05.770Z,38.71
2019-03-17T23:05:34.417Z,38.49
2019-03-17T23:08:03.071Z,39.24
2019-03-17T23:10:31.921Z,39.10
2019-03-17T23:13:00.503Z,38.54
2019-03-17T23:15:29.151Z,38.90
2019-03-17T23:17:57.835Z,38.79
2019-03-17T23:20:26.490Z,38.81
2019-03-17T23:22:55.151Z,39.39
2019-03-17T23:25:23.843Z,39.80
2019-03-17T23:27:52.548Z,39.76
2019-03-17T23:30:22.402Z,39.29
2019-03-17T23:32:52.414Z,39.15
2019-03-17T23:35:21.059Z,39.07
2019-03-17T23:37:49.983Z,39.02
2019-03-17T23:40:19.163Z,39.13
2019-03-17T23:42:47.806Z,39.15
2019-03-17T23:45:16.383Z,38.91
2019-03-17T23:47:44.965Z,39.69
2019-03-17T23:50:14.651Z,40.12
2019-03-17T23:52:43.495Z,39.89
2019-03-17T23:55:14.656Z,40.05
2019-03-17T23:57:43.381Z,39.70
